createdAt,value
2019-06-04T00:00:25.118Z,6.43
2019-06-04T00:02:56.494Z,6.10
2019-06-04T00:05:26.281Z,6.23
2019-06-04T00:07:57.472Z,6.33
2019-06-04T00:10:27.621Z,6.17
2019-06-04T00:13:36.536Z,5.67
2019-06-04T00:16:08.268Z,5.70
2019-06-04T00:18:37.723Z,6.80
2019-06-04T00:21:07.458Z,5.40
2019-06-04T00:26:19.083Z,6.07
2019-06-04T00:29:08.393Z,6.13
2019-06-04T00:34:46.456Z,6.23
2019-06-04T00:43:16.007Z,6.73
2019-06-04T00:48:54.161Z,6.93
2019-06-04T00:51:23.748Z,6.87
2019-06-04T00:53:53.779Z,6.77
2019-06-04T00:56:23.264Z,7.57
2019-06-04T00:58:52.669Z,7.40
2019-06-04T01:04:57.939Z,7.43
2019-06-04T01:07:28.751Z,6.77
2019-06-04T01:09:59.243Z,7.53
2019-06-04T01:15:26.097Z,7.93
2019-06-04T01:18:15.316Z,7.73
2019-06-04T01:21:04.953Z,7.27
2019-06-04T01:23:35.424Z,8.10
2019-06-04T01:26:05.650Z,7.57
2019-06-04T01:29:15.979Z,8.37
2019-06-04T01:31:45.992Z,7.50
2019-06-04T01:34:15.568Z,7.83
2019-06-04T01:36:44.987Z,7.67
2019-06-04T01:48:26.518Z,7.77
2019-06-04T01:50:55.906Z,8.50
2019-06-04T01:53:25.251Z,7.30
2019-06-04T01:59:30.788Z,6.63
2019-06-04T02:02:00.175Z,6.93
2019-06-04T02:05:10.278Z,7.50
2019-06-04T02:07:59.259Z,7.07
2019-06-04T02:13:30.628Z,6.93
2019-06-04T02:16:39.274Z,7.10
2019-06-04T02:19:09.720Z,6.40
2019-06-04T02:21:39.915Z,6.17
2019-06-04T02:24:09.801Z,6.50
2019-06-04T02:27:20.115Z,6.73
2019-06-04T02:33:09.556Z,7.23
2019-06-04T02:38:48.100Z,6.97
2019-06-04T02:41:18.590Z,8.00
2019-06-04T02:44:00.892Z,8.17
2019-06-04T02:56:20.749Z,8.50
2019-06-04T03:02:16.585Z,8.03
2019-06-04T03:04:46.145Z,8.17
2019-06-04T03:07:54.823Z,8.50
2019-06-04T03:13:31.766Z,7.57
2019-06-04T03:19:28.296Z,6.60
2019-06-04T03:21:57.654Z,7.50
2019-06-04T03:25:06.344Z,8.23
2019-06-04T03:30:50.377Z,6.77
2019-06-04T03:34:00.115Z,7.23
2019-06-04T03:36:49.343Z,7.10
2019-06-04T03:39:18.723Z,6.63
2019-06-04T03:41:48.146Z,7.50
2019-06-04T03:44:29.300Z,7.30
2019-06-04T03:46:58.845Z,6.87
2019-06-04T03:49:28.191Z,7.10
2019-06-04T03:52:36.996Z,6.83
2019-06-04T03:58:22.889Z,6.33
2019-06-04T04:04:07.122Z,8.00
2019-06-04T04:09:29.051Z,7.53
2019-06-04T04:11:59.744Z,7.70
2019-06-04T04:14:29.258Z,7.63
2019-06-04T04:17:38.613Z,8.37
2019-06-04T04:20:08.045Z,7.93
2019-06-04T04:23:17.282Z,8.23
2019-06-04T04:25:48.180Z,7.90
2019-06-04T04:28:18.773Z,7.80
2019-06-04T04:30:49.711Z,8.57
2019-06-04T04:36:33.645Z,8.33
2019-06-04T04:39:03.432Z,9.37
2019-06-04T04:41:32.796Z,9.70
2019-06-04T04:44:02.355Z,8.47
2019-06-04T04:49:41.379Z,9.37
2019-06-04T04:52:10.745Z,10.10
2019-06-04T04:54:40.399Z,10.80
2019-06-04T04:57:09.794Z,11.57
2019-06-04T04:59:39.342Z,12.03
2019-06-04T05:02:28.348Z,11.13
2019-06-04T05:04:59.021Z,11.80
2019-06-04T05:25:36.859Z,10.03
2019-06-04T05:28:06.289Z,9.07
2019-06-04T05:30:36.629Z,8.70
2019-06-04T05:33:06.845Z,8.10
2019-06-04T05:38:45.062Z,8.30
2019-06-04T05:44:28.441Z,7.80
2019-06-04T05:47:30.670Z,7.20
2019-06-04T05:50:00.384Z,7.17
2019-06-04T05:52:30.999Z,7.10
2019-06-04T06:01:42.968Z,7.73
2019-06-04T06:04:12.759Z,7.53
2019-06-04T06:07:21.542Z,7.73
2019-06-04T06:09:51.010Z,7.90
2019-06-04T06:12:20.367Z,7.60
2019-06-04T06:14:49.818Z,8.03
2019-06-04T06:17:19.203Z,7.90
2019-06-04T06:20:28.322Z,7.70
2019-06-04T06:26:15.194Z,8.10
2019-06-04T06:28:44.595Z,8.47
2019-06-04T06:31:14.172Z,8.30
2019-06-04T06:34:22.889Z,8.07
2019-06-04T06:36:52.334Z,8.50
2019-06-04T06:39:21.763Z,9.07
2019-06-04T06:41:51.184Z,8.30
2019-06-04T06:44:20.671Z,8.53
2019-06-04T06:49:41.853Z,9.67
2019-06-04T06:52:12.340Z,9.40
2019-06-04T06:55:21.341Z,8.77
2019-06-04T06:57:50.816Z,8.47
2019-06-04T07:01:07.165Z,8.93
2019-06-04T07:15:42.671Z,8.37
2019-06-04T07:18:51.500Z,8.17
2019-06-04T07:22:00.418Z,8.80
2019-06-04T07:24:51.830Z,8.17
2019-06-04T07:27:20.769Z,8.57
2019-06-04T07:33:05.331Z,8.30
2019-06-04T07:41:50.186Z,7.73
2019-06-04T07:47:35.299Z,8.40
2019-06-04T07:53:07.303Z,9.27
2019-06-04T07:59:25.148Z,8.80
2019-06-04T08:02:13.603Z,8.20
2019-06-04T08:07:38.691Z,8.23
2019-06-04T08:10:47.591Z,9.03
2019-06-04T08:13:17.094Z,8.70
2019-06-04T08:19:03.133Z,9.10
2019-06-04T08:22:11.955Z,8.53
2019-06-04T08:27:47.713Z,8.37
2019-06-04T08:30:17.354Z,8.47
2019-06-04T08:35:36.902Z,8.50
2019-06-04T08:41:16.418Z,8.00
2019-06-04T08:44:25.060Z,8.83
2019-06-04T08:49:49.601Z,8.97
2019-06-04T08:52:19.178Z,8.83
2019-06-04T08:54:48.526Z,7.97
2019-06-04T08:57:57.333Z,8.37
2019-06-04T09:03:28.560Z,7.40
2019-06-04T09:08:59.725Z,7.73
2019-06-04T09:11:29.109Z,7.80
2019-06-04T09:13:58.598Z,8.47
2019-06-04T09:17:07.362Z,8.17
2019-06-04T09:19:36.961Z,7.77
2019-06-04T09:22:08.510Z,7.90
2019-06-04T09:28:12.385Z,7.33
2019-06-04T09:30:43.786Z,7.40
2019-06-04T09:36:08.190Z,7.43
2019-06-04T09:38:37.731Z,7.10
2019-06-04T09:41:47.863Z,7.40
2019-06-04T09:44:17.885Z,7.70
2019-06-04T09:46:49.328Z,8.23
2019-06-04T09:49:20.315Z,7.40
2019-06-04T09:54:29.359Z,7.13
2019-06-04T09:56:58.849Z,7.70
2019-06-04T10:00:07.683Z,7.33
2019-06-04T10:08:39.997Z,6.10
2019-06-04T10:14:59.832Z,6.20
2019-06-04T10:20:44.020Z,5.17
2019-06-04T10:26:24.971Z,5.93
2019-06-04T10:29:09.147Z,6.57
2019-06-04T10:34:32.347Z,7.73
2019-06-04T10:37:41.074Z,8.70
2019-06-04T10:40:51.901Z,8.07
2019-06-04T10:43:40.052Z,7.37
2019-06-04T10:49:05.136Z,8.30
2019-06-04T11:00:59.473Z,8.37
2019-06-04T11:03:29.643Z,9.30
2019-06-04T11:06:38.650Z,8.97
2019-06-04T11:12:23.134Z,9.20
2019-06-04T11:14:53.917Z,9.40
2019-06-04T11:17:24.029Z,9.10
2019-06-04T11:19:53.635Z,9.10
2019-06-04T11:22:24.599Z,9.20
2019-06-04T11:25:13.251Z,12.40
2019-06-04T11:30:58.348Z,10.40
2019-06-04T11:33:28.662Z,9.77
2019-06-04T11:39:10.292Z,8.40
2019-06-04T11:41:25.458Z,9.37
2019-06-04T11:43:55.144Z,8.40
2019-06-04T11:50:01.954Z,8.07
2019-06-04T12:01:18.107Z,9.13
2019-06-04T12:03:45.893Z,9.20
2019-06-04T12:06:15.122Z,8.80
2019-06-04T12:09:30.708Z,9.10
2019-06-04T12:18:11.006Z,8.67
2019-06-04T12:24:01.977Z,8.60
2019-06-04T12:29:33.642Z,8.03
2019-06-04T12:32:42.283Z,8.07
2019-06-04T12:41:08.823Z,8.60
2019-06-04T12:44:17.475Z,8.17
2019-06-04T12:46:47.018Z,8.47
2019-06-04T13:10:37.659Z,8.90
2019-06-04T13:13:46.488Z,8.97
2019-06-04T13:16:55.250Z,9.43
2019-06-04T13:34:25.242Z,9.20
2019-06-04T13:36:54.638Z,9.00
2019-06-04T13:42:19.726Z,8.13
2019-06-04T13:45:28.451Z,8.73
2019-06-04T13:50:48.932Z,8.63
2019-06-04T13:56:02.226Z,8.90
2019-06-04T14:01:41.609Z,7.80
2019-06-04T14:07:16.067Z,7.40
2019-06-04T14:09:45.941Z,8.67
2019-06-04T14:12:55.003Z,7.83
2019-06-04T14:15:43.453Z,7.87
2019-06-04T14:24:26.426Z,8.60
2019-06-04T14:33:14.358Z,7.57
2019-06-04T14:35:44.270Z,7.03
2019-06-04T14:38:14.378Z,7.70
2019-06-04T14:43:51.713Z,7.83
2019-06-04T14:49:15.862Z,7.70
2019-06-04T14:51:45.658Z,7.60
2019-06-04T14:57:23.020Z,8.43
2019-06-04T15:03:01.352Z,9.60
2019-06-04T15:05:30.995Z,9.70
2019-06-04T15:08:40.104Z,8.23
2019-06-04T15:11:30.160Z,8.37
2019-06-04T15:13:41.159Z,8.90
2019-06-04T15:16:12.605Z,9.07
2019-06-04T15:21:44.593Z,8.70
2019-06-04T15:24:14.859Z,10.10
2019-06-04T15:26:45.345Z,8.60
2019-06-04T15:29:54.177Z,10.60
2019-06-04T15:35:20.283Z,10.77
2019-06-04T15:37:51.033Z,11.43
2019-06-04T15:41:00.180Z,11.53
2019-06-04T15:43:48.794Z,10.70
2019-06-04T15:46:19.200Z,11.60
2019-06-04T15:48:49.711Z,10.10
2019-06-04T15:51:20.124Z,10.53
2019-06-04T15:53:50.504Z,10.13
2019-06-04T16:00:26.947Z,9.93
2019-06-04T16:02:56.726Z,8.73
2019-06-04T16:05:26.184Z,8.60
2019-06-04T16:08:34.975Z,8.50
2019-06-04T16:11:04.433Z,9.50
2019-06-04T16:13:35.971Z,8.77
2019-06-04T16:16:07.363Z,9.20
2019-06-04T16:18:37.146Z,9.33
2019-06-04T16:21:06.552Z,9.27
2019-06-04T16:24:15.331Z,9.73
2019-06-04T16:29:53.885Z,8.87
2019-06-04T16:33:02.768Z,8.97
2019-06-04T16:35:34.013Z,9.50
2019-06-04T16:40:59.582Z,10.50
2019-06-04T16:46:44.307Z,10.60
2019-06-04T16:49:13.826Z,9.40
2019-06-04T16:52:22.964Z,10.03
2019-06-04T16:54:53.823Z,9.40
2019-06-04T16:57:44.512Z,10.60
2019-06-04T17:00:28.337Z,10.53
2019-06-04T17:03:36.986Z,11.20
2019-06-04T17:06:06.583Z,9.50
2019-06-04T17:08:36.385Z,9.80
2019-06-04T17:11:45.182Z,10.40
2019-06-04T17:17:26.855Z,10.37
2019-06-04T17:25:46.250Z,10.50
2019-06-04T17:31:24.491Z,10.93
2019-06-04T17:33:53.976Z,10.90
2019-06-04T17:37:02.800Z,11.37
2019-06-04T17:39:33.262Z,11.23
2019-06-04T17:42:42.200Z,11.13
2019-06-04T17:45:11.779Z,11.90
2019-06-04T17:47:41.185Z,11.83
2019-06-04T17:50:50.080Z,12.27
2019-06-04T17:53:19.517Z,11.80
2019-06-04T17:55:49.075Z,11.37
2019-06-04T18:01:35.679Z,11.43
2019-06-04T18:06:45.512Z,12.63
2019-06-04T18:09:56.882Z,11.70
2019-06-04T18:15:02.546Z,11.97
2019-06-04T18:17:32.197Z,12.30
2019-06-04T18:25:53.451Z,12.90
2019-06-04T18:28:22.860Z,14.10
2019-06-04T18:31:31.955Z,14.07
2019-06-04T18:36:59.174Z,13.77
2019-06-04T18:39:30.061Z,14.00
2019-06-04T18:45:28.717Z,14.27
2019-06-04T18:47:59.983Z,14.90
2019-06-04T18:50:30.881Z,13.80
2019-06-04T18:53:40.228Z,13.70
2019-06-04T18:56:10.004Z,14.23
2019-06-04T18:58:41.131Z,14.97
2019-06-04T19:01:11.293Z,13.87
2019-06-04T19:03:40.939Z,14.30
2019-06-04T19:06:10.375Z,13.30
2019-06-04T19:11:37.212Z,15.03
2019-06-04T19:14:06.961Z,14.43
2019-06-04T19:17:15.735Z,15.93
2019-06-04T19:19:45.278Z,14.97
2019-06-04T19:22:15.108Z,15.30
2019-06-04T19:24:56.673Z,15.47
2019-06-04T19:30:27.845Z,15.40
2019-06-04T19:33:37.481Z,15.07
2019-06-04T19:36:11.392Z,15.70
2019-06-04T19:38:42.489Z,16.30
2019-06-04T19:41:51.606Z,16.57
2019-06-04T19:44:24.002Z,16.57
2019-06-04T19:46:52.267Z,16.93
2019-06-04T19:49:21.868Z,16.37
2019-06-04T19:51:51.458Z,16.20
2019-06-04T19:55:01.195Z,15.87
2019-06-04T20:00:41.845Z,17.83
2019-06-04T20:06:12.613Z,18.27
2019-06-04T20:11:33.053Z,16.27
2019-06-04T20:17:13.836Z,15.73
2019-06-04T20:22:58.212Z,16.87
2019-06-04T20:25:27.826Z,16.73
2019-06-04T20:27:57.497Z,17.80
2019-06-04T20:30:27.520Z,16.80
2019-06-04T20:32:57.875Z,16.53
2019-06-04T20:35:40.735Z,17.97
2019-06-04T20:41:06.900Z,16.47
2019-06-04T20:46:56.967Z,16.53
2019-06-04T20:52:35.610Z,17.27
2019-06-04T20:58:25.531Z,16.97
2019-06-04T21:00:55.232Z,17.37
2019-06-04T21:06:20.372Z,18.10
2019-06-04T21:08:51.765Z,17.50
2019-06-04T21:11:22.499Z,17.50
2019-06-04T21:16:47.729Z,17.27
2019-06-04T21:19:19.490Z,16.97
2019-06-04T21:25:16.715Z,15.60
2019-06-04T21:27:47.647Z,14.60
2019-06-04T21:30:56.713Z,16.50
2019-06-04T21:39:53.160Z,17.13
2019-06-04T21:42:20.319Z,16.77
2019-06-04T21:44:51.106Z,16.90
2019-06-04T21:48:00.399Z,17.90
2019-06-04T21:50:30.622Z,17.73
2019-06-04T21:53:00.066Z,18.63
2019-06-04T21:56:08.832Z,17.10
2019-06-04T21:58:38.270Z,18.17
2019-06-04T22:04:37.489Z,18.37
2019-06-04T22:07:07.062Z,18.17
2019-06-04T22:10:16.203Z,17.83
2019-06-04T22:16:02.791Z,17.60
2019-06-04T22:18:38.958Z,18.37
2019-06-04T22:24:04.544Z,16.70
2019-06-04T22:27:13.572Z,16.77
2019-06-04T22:29:43.112Z,16.97
2019-06-04T22:32:12.763Z,16.87
2019-06-04T22:34:42.311Z,15.87
2019-06-04T22:37:11.773Z,17.37
2019-06-04T22:39:41.744Z,17.10
2019-06-04T22:42:11.110Z,16.20
2019-06-04T22:44:40.541Z,17.17
2019-06-04T22:47:10.434Z,16.30
2019-06-04T22:52:54.652Z,17.23
2019-06-04T22:58:27.546Z,16.30
2019-06-04T23:00:57.913Z,15.40
2019-06-04T23:03:29.662Z,16.40
2019-06-04T23:08:56.526Z,16.67
2019-06-04T23:11:26.038Z,16.63
2019-06-04T23:13:56.583Z,17.03
2019-06-04T23:17:06.235Z,17.77
2019-06-04T23:22:37.855Z,15.93
2019-06-04T23:25:07.357Z,16.93
2019-06-04T23:28:16.326Z,16.73
2019-06-04T23:33:47.603Z,16.73
2019-06-04T23:36:56.969Z,16.10
2019-06-04T23:40:06.971Z,16.53
2019-06-04T23:42:36.365Z,15.30
2019-06-04T23:45:45.269Z,16.47
2019-06-04T23:51:35.192Z,16.57
2019-06-04T23:54:05.923Z,17.00
2019-06-04T23:56:35.823Z,16.77
2019-06-04T23:59:44.555Z,16.57
